createdAt,value
2022-12-08T00:00:02.576Z,1015.38
2022-12-08T00:10:10.412Z,1015.32
2022-12-08T00:20:01.481Z,1015.26
2022-12-08T00:30:01.246Z,1015.22
2022-12-08T00:40:00.213Z,1015.12
2022-12-08T00:50:03.080Z,1015.12
2022-12-08T01:00:01.533Z,1015.03
2022-12-08T01:10:01.487Z,1015.02
2022-12-08T01:20:01.507Z,1014.99
2022-12-08T01:30:00.181Z,1014.88
2022-12-08T01:40:01.777Z,1014.76
2022-12-08T01:50:01.690Z,1014.66
2022-12-08T02:00:01.812Z,1014.53
2022-12-08T02:10:01.897Z,1014.50
2022-12-08T02:20:01.358Z,1014.37
2022-12-08T02:30:01.377Z,1014.35
2022-12-08T02:40:01.649Z,1014.32
2022-12-08T02:50:03.042Z,1014.22
2022-12-08T03:00:03.475Z,1014.07
2022-12-08T03:10:01.273Z,1013.92
2022-12-08T03:20:01.928Z,1013.80
2022-12-08T03:30:01.756Z,1013.81
2022-12-08T03:40:01.798Z,1013.70
2022-12-08T03:50:02.170Z,1013.53
2022-12-08T04:00:02.030Z,1013.45
2022-12-08T04:10:02.201Z,1013.38
2022-12-08T04:20:03.818Z,1013.24
2022-12-08T04:30:01.706Z,1013.21
2022-12-08T04:40:01.370Z,1013.20
2022-12-08T04:50:00.147Z,1013.20
2022-12-08T05:00:01.393Z,1013.15
2022-12-08T05:10:01.398Z,1013.13
2022-12-08T05:20:02.416Z,1013.06
2022-12-08T05:30:02.131Z,1013.04
2022-12-08T05:40:04.120Z,1012.98
2022-12-08T05:50:01.784Z,1012.91
2022-12-08T06:00:01.635Z,1012.88
2022-12-08T06:10:01.537Z,1012.86
2022-12-08T06:20:01.058Z,1012.85
2022-12-08T06:30:01.353Z,1012.79
2022-12-08T06:40:01.446Z,1012.88
2022-12-08T06:50:01.433Z,1012.81
2022-12-08T07:00:01.802Z,1012.91
2022-12-08T07:10:00.955Z,1012.96
2022-12-08T07:20:01.674Z,1013.00
2022-12-08T07:30:01.556Z,1013.06
2022-12-08T07:40:01.528Z,1012.99
2022-12-08T07:50:00.145Z,1012.98
2022-12-08T08:00:02.228Z,1012.91
2022-12-08T08:10:01.281Z,1013.02
2022-12-08T08:20:01.051Z,1013.08
2022-12-08T08:30:01.577Z,1013.07
2022-12-08T08:40:02.183Z,1012.94
2022-12-08T08:50:00.153Z,1013.01
2022-12-08T09:00:02.146Z,1013.01
2022-12-08T09:10:02.266Z,1012.89
2022-12-08T09:20:01.939Z,1012.75
2022-12-08T09:30:01.136Z,1012.72
2022-12-08T09:40:01.095Z,1012.57
2022-12-08T09:50:03.174Z,1012.52
2022-12-08T10:00:01.468Z,1012.45
2022-12-08T10:10:01.023Z,1012.33
2022-12-08T10:20:01.587Z,1012.36
2022-12-08T10:30:01.202Z,1012.35
2022-12-08T10:40:01.348Z,1012.20
2022-12-08T10:50:01.530Z,1012.20
2022-12-08T11:00:01.346Z,1012.13
2022-12-08T11:10:01.240Z,1012.15
2022-12-08T11:20:01.901Z,1012.12
2022-12-08T11:30:06.215Z,1012.08
2022-12-08T11:40:01.335Z,1012.03
2022-12-08T11:50:01.448Z,1012.03
2022-12-08T12:00:01.546Z,1012.14
2022-12-08T12:10:01.320Z,1012.13
2022-12-08T12:20:02.316Z,1012.11
2022-12-08T12:30:00.158Z,1012.18
2022-12-08T12:40:01.012Z,1012.19
2022-12-08T12:50:00.937Z,1012.05
2022-12-08T13:00:00.168Z,1012.09
2022-12-08T13:10:01.500Z,1012.02
2022-12-08T13:20:01.573Z,1012.01
2022-12-08T13:30:01.881Z,1012.00
2022-12-08T13:40:01.519Z,1011.98
2022-12-08T14:00:03.825Z,1012.08
2022-12-08T14:10:01.017Z,1012.05
2022-12-08T14:30:01.028Z,1012.24
2022-12-08T14:40:01.124Z,1012.25
2022-12-08T14:50:01.156Z,1012.35
2022-12-08T15:10:01.243Z,1012.34
2022-12-08T15:20:01.561Z,1012.32
2022-12-08T15:30:02.041Z,1012.34
2022-12-08T15:40:01.354Z,1012.55
2022-12-08T15:50:01.489Z,1012.51
2022-12-08T16:00:01.960Z,1012.37
2022-12-08T16:10:01.687Z,1012.43
2022-12-08T16:20:01.588Z,1012.48
2022-12-08T16:30:02.162Z,1012.54
2022-12-08T16:40:03.620Z,1012.63
2022-12-08T16:50:01.330Z,1012.70
2022-12-08T17:00:01.025Z,1012.70
2022-12-08T17:10:01.412Z,1012.76
2022-12-08T17:20:00.177Z,1012.77
2022-12-08T17:30:01.066Z,1012.83
2022-12-08T17:40:00.169Z,1012.91
2022-12-08T17:50:01.210Z,1012.86
2022-12-08T18:00:01.078Z,1012.93
2022-12-08T18:10:00.994Z,1012.95
2022-12-08T18:20:00.174Z,1013.00
2022-12-08T18:30:00.990Z,1012.95
2022-12-08T18:40:00.165Z,1013.09
2022-12-08T18:50:01.902Z,1013.10
2022-12-08T19:00:01.500Z,1013.19
2022-12-08T19:10:01.510Z,1013.29
2022-12-08T19:20:01.461Z,1013.45
2022-12-08T19:30:00.155Z,1013.52
2022-12-08T19:40:00.191Z,1013.64
2022-12-08T19:50:04.591Z,1013.69
2022-12-08T20:00:03.870Z,1013.62
2022-12-08T20:10:01.807Z,1013.56
2022-12-08T20:20:03.982Z,1013.52
2022-12-08T20:30:03.245Z,1013.52
2022-12-08T20:40:01.516Z,1013.65
2022-12-08T20:50:01.613Z,1013.79
2022-12-08T21:00:01.297Z,1013.86
2022-12-08T21:10:01.618Z,1013.94
2022-12-08T21:20:01.418Z,1014.04
2022-12-08T21:30:01.435Z,1014.04
2022-12-08T21:40:01.112Z,1014.05
2022-12-08T21:50:01.228Z,1014.25
2022-12-08T22:00:01.121Z,1014.30
2022-12-08T22:10:02.380Z,1014.34
2022-12-08T22:20:01.286Z,1014.35
2022-12-08T22:30:02.214Z,1014.34
2022-12-08T22:40:01.244Z,1014.27
2022-12-08T22:50:01.026Z,1014.28
2022-12-08T23:00:01.054Z,1014.28
2022-12-08T23:10:00.352Z,1014.29
2022-12-08T23:20:01.060Z,1014.28
2022-12-08T23:30:00.361Z,1014.16
2022-12-08T23:40:01.408Z,1014.12
2022-12-08T23:50:01.043Z,1014.15
